Kingshill, Virgin Islands
Current Conditions -  °F | °C
As of 12:00 PM on Saturday 25 Oct 2014 (Local Time) from TUPJ Reporting Station
Scattered Clouds Scattered Clouds  
Wind Chill: 88°   Ceiling: Unl
Heat Index: 100°   Visibility: 6mi
Dew Point: 77°   Wind: 8mph
Humidity: 70%   Direction: 130°SE
Pressure: 29.91"   Gusts: NA
Location:  17.72°N, 64.78°W
Report Text: TUPJ 251600Z 13007KT 9999 SCT020 31/25 Q1013 RMK A2993
Loading
Personal Weather Stations






























Interactive Weather Map New forecast layout! Learn more

10-Day Weather Forecast

Advertisements
Track Severe Weather on mobile